Time;durP1;ratioP1;P1;durP2;ratioP2;P2;SDS_P1;SDS_P2;PMS_P1;PMS_P2;Temp;Humidity;BMP_temperature;BMP_pressure;BME280_temperature;BME280_humidity;BME280_pressure;Samples;Min_cycle;Max_cycle;Signal;HPM_P1;HPM_P2
2024/02/08 00:01:15;;;;;;;1.50;0.60;;;9.10;99.90;;;;;;5085757;28;20051;-72
2024/02/08 00:03:40;;;;;;;2.03;0.70;;;9.20;99.90;;;;;;5084393;28;20483;-72
2024/02/08 00:06:06;;;;;;;0.85;0.65;;;9.20;99.90;;;;;;5087892;28;20020;-73
2024/02/08 00:08:35;;;;;;;1.10;0.40;;;9.20;99.90;;;;;;5090029;28;20424;-73
2024/02/08 00:11:02;;;;;;;0.82;0.82;;;9.20;99.90;;;;;;5066891;28;20029;-73
2024/02/08 00:13:30;;;;;;;0.77;0.50;;;9.20;99.90;;;;;;5067550;28;20024;-73
2024/02/08 00:15:56;;;;;;;0.82;0.40;;;9.20;99.90;;;;;;5073938;28;20027;-74
2024/02/08 00:18:22;;;;;;;0.73;0.50;;;9.30;99.90;;;;;;5056577;28;20027;-74
2024/02/08 00:20:47;;;;;;;1.10;0.50;;;9.30;99.90;;;;;;5080763;27;20102;-74
2024/02/08 00:23:14;;;;;;;1.13;0.50;;;9.30;99.90;;;;;;5068362;28;20035;-74
2024/02/08 00:25:39;;;;;;;1.38;0.30;;;9.20;99.90;;;;;;5071736;28;20027;-74
2024/02/08 00:28:11;;;;;;;0.60;0.47;;;9.30;99.90;;;;;;5041804;28;20020;-74
2024/02/08 00:30:40;;;;;;;1.05;0.30;;;9.40;99.90;;;;;;5064455;28;20056;-73
2024/02/08 00:33:06;;;;;;;1.38;0.50;;;9.30;99.90;;;;;;5050799;28;20025;-73
2024/02/08 00:35:33;;;;;;;1.05;0.40;;;9.30;99.90;;;;;;5066843;28;20150;-74
2024/02/08 00:38:00;;;;;;;0.30;0.30;;;9.30;99.90;;;;;;5044779;28;20032;-74
2024/02/08 00:40:26;;;;;;;1.30;0.40;;;9.30;99.90;;;;;;5043930;28;20464;-74
2024/02/08 00:42:52;;;;;;;0.40;0.40;;;9.30;99.90;;;;;;5036355;28;20120;-74
2024/02/08 00:45:22;;;;;;;0.40;0.40;;;9.30;99.90;;;;;;5062941;28;20056;-75
2024/02/08 00:47:54;;;;;;;0.65;0.47;;;9.40;99.90;;;;;;5053414;28;20035;-75
2024/02/08 00:50:21;;;;;;;0.50;0.40;;;9.50;99.90;;;;;;5063721;28;20071;-75
2024/02/08 00:52:52;;;;;;;0.40;0.35;;;9.50;99.90;;;;;;5055448;28;20476;-75
2024/02/08 00:55:21;;;;;;;0.50;0.25;;;9.50;99.90;;;;;;5043552;28;20047;-75
2024/02/08 00:57:48;;;;;;;0.30;0.30;;;9.50;99.90;;;;;;5071028;28;20035;-75
2024/02/08 01:00:14;;;;;;;0.88;0.47;;;9.50;99.90;;;;;;5068965;28;20021;-75
2024/02/08 01:02:40;;;;;;;0.38;0.35;;;9.40;99.90;;;;;;5064116;28;20079;-75
2024/02/08 01:05:08;;;;;;;0.30;0.30;;;9.50;99.90;;;;;;5066503;28;20035;-75
2024/02/08 01:07:34;;;;;;;0.55;0.55;;;9.50;99.90;;;;;;5061147;28;20077;-75
2024/02/08 01:10:01;;;;;;;1.00;0.40;;;9.50;99.90;;;;;;5069404;28;20024;-75
2024/02/08 01:12:26;;;;;;;0.28;0.28;;;9.50;99.90;;;;;;5070044;28;20471;-76
2024/02/08 01:14:53;;;;;;;1.17;0.45;;;9.50;99.90;;;;;;5070171;28;20097;-75
2024/02/08 01:17:18;;;;;;;1.10;0.30;;;9.50;99.90;;;;;;5069065;28;20032;-76
2024/02/08 01:19:46;;;;;;;0.73;0.40;;;9.40;99.90;;;;;;5070028;28;20031;-76
2024/02/08 01:22:19;;;;;;;0.40;0.40;;;9.40;99.90;;;;;;5064370;27;20045;-74
2024/02/08 01:24:48;;;;;;;0.57;0.40;;;9.50;99.90;;;;;;5048809;28;20025;-74
2024/02/08 01:27:14;;;;;;;0.57;0.45;;;9.50;99.90;;;;;;5069889;28;20095;-75
2024/02/08 01:29:40;;;;;;;0.52;0.30;;;9.50;99.90;;;;;;5069519;28;20021;-75
2024/02/08 01:32:05;;;;;;;0.32;0.32;;;9.50;99.90;;;;;;5052264;28;20051;-75
2024/02/08 01:34:31;;;;;;;0.57;0.30;;;9.50;99.90;;;;;;5067798;28;20032;-75
2024/02/08 01:36:59;;;;;;;0.30;0.30;;;9.50;99.90;;;;;;5070894;28;20056;-75
2024/02/08 01:39:25;;;;;;;1.17;0.47;;;9.60;99.90;;;;;;5050905;28;20484;-74
2024/02/08 01:41:54;;;;;;;0.95;0.70;;;9.50;99.90;;;;;;5059391;28;20032;-73
2024/02/08 01:44:23;;;;;;;0.60;0.30;;;9.50;99.90;;;;;;5068196;28;20095;-73
2024/02/08 01:46:50;;;;;;;0.82;0.35;;;9.50;99.90;;;;;;5064865;28;20017;-74
2024/02/08 01:49:26;;;;;;;0.57;0.38;;;9.50;99.90;;;;;;5030527;28;20083;-73
2024/02/08 01:51:59;;;;;;;0.50;0.43;;;9.60;99.90;;;;;;5046189;28;20025;-73
2024/02/08 01:54:26;;;;;;;1.65;0.50;;;9.60;99.90;;;;;;5049637;28;20017;-73
2024/02/08 01:56:53;;;;;;;0.68;0.30;;;9.60;99.90;;;;;;5070329;28;20020;-73
2024/02/08 01:59:19;;;;;;;0.50;0.30;;;9.60;99.90;;;;;;5049899;28;20040;-73
2024/02/08 02:01:57;;;;;;;1.33;0.40;;;9.60;99.90;;;;;;5069603;28;20024;-73
2024/02/08 02:04:23;;;;;;;0.60;0.38;;;9.60;99.90;;;;;;5054201;28;20028;-73
2024/02/08 02:06:49;;;;;;;1.40;0.40;;;9.60;99.90;;;;;;5069259;28;20092;-73
2024/02/08 02:09:23;;;;;;;0.75;0.40;;;9.60;99.90;;;;;;5056828;28;20035;-73
2024/02/08 02:12:12;;;;;;;0.52;0.40;;;9.60;99.90;;;;;;5062138;28;20120;-74
2024/02/08 02:14:38;;;;;;;0.60;0.40;;;9.60;99.90;;;;;;5068536;28;20379;-74
2024/02/08 02:17:12;;;;;;;1.42;0.55;;;9.60;99.90;;;;;;5077323;28;20020;-74
2024/02/08 02:19:39;;;;;;;2.08;0.30;;;9.60;99.90;;;;;;5068714;28;20379;-74
2024/02/08 02:22:07;;;;;;;0.43;0.30;;;9.60;99.90;;;;;;5074551;27;20119;-74
2024/02/08 02:24:40;;;;;;;0.40;0.40;;;9.60;99.90;;;;;;5081101;28;20028;-74
2024/02/08 02:27:07;;;;;;;0.68;0.40;;;9.60;99.90;;;;;;5074213;28;20100;-74
2024/02/08 02:29:33;;;;;;;1.60;0.40;;;9.70;99.90;;;;;;5062807;28;20107;-74
2024/02/08 02:32:00;;;;;;;0.98;0.50;;;9.70;99.90;;;;;;5089503;28;20115;-74
2024/02/08 02:34:30;;;;;;;0.30;0.30;;;9.70;99.90;;;;;;5081925;28;20062;-74
2024/02/08 02:37:00;;;;;;;0.80;0.38;;;9.70;99.90;;;;;;5076414;28;20070;-75
2024/02/08 02:39:31;;;;;;;0.50;0.32;;;9.70;99.90;;;;;;5083752;28;20063;-74
2024/02/08 02:42:00;;;;;;;;;;;9.70;99.90;;;;;;5058008;28;20103;-73
2024/02/08 02:44:29;;;;;;;0.60;0.50;;;9.70;99.90;;;;;;5084115;28;19911;-74
2024/02/08 02:47:05;;;;;;;0.40;0.30;;;9.70;99.90;;;;;;5066185;28;20051;-73
2024/02/08 02:49:36;;;;;;;0.80;0.30;;;9.70;99.90;;;;;;5084197;28;20093;-73
2024/02/08 02:52:06;;;;;;;2.08;0.30;;;9.70;99.90;;;;;;5080957;28;20043;-73
2024/02/08 02:54:40;;;;;;;0.68;0.40;;;9.60;99.90;;;;;;5073206;28;20025;-74
2024/02/08 02:57:05;;;;;;;0.70;0.40;;;9.70;99.90;;;;;;5076627;28;20054;-73
2024/02/08 02:59:31;;;;;;;0.22;0.22;;;9.70;99.90;;;;;;5087034;28;20575;-73
2024/02/08 03:01:57;;;;;;;0.30;0.30;;;9.70;99.90;;;;;;5059486;28;20399;-73
2024/02/08 03:04:23;;;;;;;0.93;0.20;;;9.70;99.90;;;;;;5083961;28;20016;-73
2024/02/08 03:06:55;;;;;;;0.80;0.28;;;9.70;99.90;;;;;;5067479;28;20077;-73
2024/02/08 03:09:27;;;;;;;0.30;0.20;;;9.70;99.90;;;;;;5084242;28;20040;-74
2024/02/08 03:11:53;;;;;;;0.30;0.20;;;9.70;99.90;;;;;;5087376;28;20418;-73
2024/02/08 03:14:22;;;;;;;0.20;0.20;;;9.70;99.90;;;;;;5066873;28;20043;-73
2024/02/08 03:16:48;;;;;;;0.30;0.22;;;9.60;99.90;;;;;;5087903;28;20068;-74
2024/02/08 03:19:15;;;;;;;1.02;0.30;;;9.60;99.90;;;;;;5084641;28;20039;-75
2024/02/08 03:21:41;;;;;;;0.93;0.30;;;9.60;99.90;;;;;;5085629;28;20036;-74
2024/02/08 03:24:07;;;;;;;0.20;0.10;;;9.70;99.90;;;;;;5065993;28;20044;-73
2024/02/08 03:26:40;;;;;;;0.85;0.17;;;9.70;99.90;;;;;;5062704;28;20308;-73
2024/02/08 03:29:11;;;;;;;0.20;0.20;;;9.70;99.90;;;;;;5066896;28;20364;-73
2024/02/08 03:31:47;;;;;;;0.20;0.20;;;9.70;99.90;;;;;;5087691;28;20609;-73
2024/02/08 03:34:19;;;;;;;0.10;0.10;;;9.70;99.90;;;;;;5063803;28;20491;-74
2024/02/08 03:36:49;;;;;;;0.70;0.30;;;9.70;99.90;;;;;;5084200;28;20480;-73
2024/02/08 03:39:27;;;;;;;0.10;0.10;;;9.70;99.90;;;;;;5084619;28;20475;-74
2024/02/08 03:42:01;;;;;;;0.40;0.22;;;9.70;99.90;;;;;;5083829;28;20032;-73
2024/02/08 03:44:30;;;;;;;0.52;0.20;;;9.70;99.90;;;;;;5082677;28;20027;-73
2024/02/08 03:47:03;;;;;;;0.25;0.10;;;9.70;99.90;;;;;;5071623;28;20024;-73
2024/02/08 03:49:29;;;;;;;0.38;0.20;;;9.70;99.90;;;;;;5083833;28;20441;-74
2024/02/08 03:51:56;;;;;;;0.68;0.20;;;9.70;99.90;;;;;;5080320;28;20115;-73
2024/02/08 03:54:24;;;;;;;0.10;0.10;;;9.70;99.90;;;;;;5077910;28;20024;-73
2024/02/08 03:56:52;;;;;;;0.10;0.10;;;9.70;99.90;;;;;;5084678;28;20028;-74
2024/02/08 03:59:27;;;;;;;0.52;0.52;;;9.80;99.90;;;;;;5062461;28;20547;-73
2024/02/08 04:02:03;;;;;;;0.68;0.30;;;9.70;99.90;;;;;;5088760;28;20071;-73
2024/02/08 04:05:15;;;;;;;2.47;0.45;;;9.80;99.90;;;;;;5088021;28;20066;-73
2024/02/08 04:07:56;;;;;;;0.57;0.30;;;9.80;99.90;;;;;;5054003;28;20040;-73
2024/02/08 04:54:43;;;;;;;1.20;0.40;;;9.90;99.90;;;;;;5092778;28;20043;-74
2024/02/08 04:57:09;;;;;;;0.20;0.20;;;9.90;99.90;;;;;;5093350;28;20035;-74
2024/02/08 04:59:44;;;;;;;0.40;0.40;;;9.90;99.90;;;;;;5091680;28;20073;-73
2024/02/08 05:02:11;;;;;;;0.43;0.43;;;9.90;99.90;;;;;;5074440;28;20039;-73
2024/02/08 05:04:37;;;;;;;0.77;0.30;;;9.90;99.90;;;;;;5091863;28;20027;-73
2024/02/08 05:07:09;;;;;;;0.30;0.30;;;9.90;99.90;;;;;;5074525;28;20108;-73
2024/02/08 05:09:35;;;;;;;0.82;0.30;;;9.90;99.90;;;;;;5073434;28;20020;-73
2024/02/08 05:12:05;;;;;;;1.48;0.30;;;9.90;99.90;;;;;;5074393;28;20404;-73
2024/02/08 05:14:38;;;;;;;2.13;0.50;;;9.80;99.90;;;;;;5091390;28;20211;-73
2024/02/08 05:17:08;;;;;;;0.32;0.32;;;9.80;99.90;;;;;;5074585;28;20032;-73
2024/02/08 05:19:35;;;;;;;;;;;9.70;99.90;;;;;;5091711;28;20020;-75
2024/02/08 05:22:02;;;;;;;0.55;0.43;;;9.60;99.90;;;;;;5072844;28;19919;-74
2024/02/08 05:24:28;;;;;;;0.95;0.40;;;9.60;99.90;;;;;;5080140;28;20017;-75
2024/02/08 05:26:55;;;;;;;0.70;0.30;;;9.50;99.90;;;;;;5066444;28;20081;-72
2024/02/08 05:29:20;;;;;;;1.52;0.30;;;9.50;99.90;;;;;;5073302;28;20454;-73
2024/02/08 05:31:49;;;;;;;2.67;0.47;;;9.40;99.90;;;;;;5084353;28;20050;-73
2024/02/08 05:34:15;;;;;;;0.85;0.40;;;9.30;99.90;;;;;;5090525;28;20022;-75
2024/02/08 05:36:46;;;;;;;0.77;0.50;;;9.20;99.90;;;;;;5092269;28;20012;-76
2024/02/08 05:39:23;;;;;;;0.55;0.32;;;9.20;99.90;;;;;;5063535;28;20065;-73
2024/02/08 05:41:54;;;;;;;0.77;0.30;;;9.10;99.90;;;;;;5090551;28;20079;-72
2024/02/08 05:44:20;;;;;;;0.50;0.40;;;9.10;99.90;;;;;;5071841;28;20021;-72
2024/02/08 05:46:47;;;;;;;1.30;0.43;;;9.10;99.90;;;;;;5092369;28;20043;-72
2024/02/08 05:49:14;;;;;;;0.60;0.40;;;9.10;99.90;;;;;;5066165;28;20020;-73
2024/02/08 05:51:51;;;;;;;0.60;0.50;;;9.10;99.90;;;;;;5073379;28;20089;-72
2024/02/08 05:54:20;;;;;;;1.20;0.30;;;9.10;99.90;;;;;;5070982;28;20031;-73
2024/02/08 05:56:47;;;;;;;0.85;0.65;;;9.10;99.90;;;;;;5073250;28;20368;-73
2024/02/08 05:59:17;;;;;;;3.22;0.50;;;9.20;99.90;;;;;;5070481;28;20028;-73
2024/02/08 06:01:50;;;;;;;0.40;0.40;;;9.10;99.90;;;;;;5066364;28;20693;-74
2024/02/08 06:04:25;;;;;;;1.35;0.40;;;9.10;99.90;;;;;;5089168;28;20020;-73
2024/02/08 06:07:29;;;;;;;0.45;0.40;;;9.00;99.90;;;;;;5090206;28;20012;-73
2024/02/08 06:09:55;;;;;;;0.52;0.38;;;9.00;99.90;;;;;;5082905;28;20036;-73
2024/02/08 06:15:21;;;;;;;0.77;0.70;;;8.90;99.90;;;;;;5079436;28;20035;-73
2024/02/08 06:17:57;;;;;;;3.47;0.95;;;8.90;99.90;;;;;;5090236;28;20028;-74
2024/02/08 06:20:42;;;;;;;3.15;0.95;;;8.90;99.90;;;;;;5079993;28;20016;-74
2024/02/08 06:23:17;;;;;;;1.65;0.40;;;8.80;99.90;;;;;;5065986;28;20062;-74
2024/02/08 06:25:45;;;;;;;0.75;0.40;;;8.80;99.90;;;;;;5079654;28;20021;-75
2024/02/08 06:28:13;;;;;;;2.28;0.47;;;8.90;99.90;;;;;;5081281;28;20078;-74
2024/02/08 06:30:46;;;;;;;0.50;0.50;;;8.80;99.90;;;;;;5090179;28;20020;-74
2024/02/08 06:33:25;;;;;;;0.63;0.63;;;8.80;99.90;;;;;;5080127;28;20058;-75
2024/02/08 06:35:56;;;;;;;1.98;0.63;;;8.80;99.90;;;;;;5084943;28;20161;-74
2024/02/08 06:38:40;;;;;;;0.68;0.50;;;8.80;99.90;;;;;;5078946;28;20062;-73
2024/02/08 06:41:23;;;;;;;0.70;0.70;;;8.90;99.90;;;;;;5073420;28;20392;-75
2024/02/08 06:47:17;;;;;;;1.20;0.43;;;8.80;99.90;;;;;;5019226;28;20099;-74
2024/02/08 07:39:34;;;;;;;1.55;0.70;;;8.90;99.90;;;;;;5072039;28;20043;-78
2024/02/08 07:42:12;;;;;;;1.23;0.70;;;8.90;99.90;;;;;;5084617;28;20077;-81
2024/02/08 07:44:48;;;;;;;1.55;0.63;;;8.90;99.90;;;;;;5087602;28;20028;-80
2024/02/08 07:47:18;;;;;;;1.23;0.60;;;9.00;99.90;;;;;;5089486;28;20028;-77
2024/02/08 07:49:57;;;;;;;1.13;0.57;;;9.00;99.90;;;;;;5088360;28;20016;-78
2024/02/08 07:52:24;;;;;;;2.45;0.90;;;9.00;99.90;;;;;;5069951;28;20024;-79
2024/02/08 07:55:14;;;;;;;1.38;0.60;;;9.00;99.90;;;;;;5066119;28;20480;-76
2024/02/08 07:57:38;;;;;;;2.58;0.68;;;9.10;99.90;;;;;;5088043;28;20040;-80
2024/02/08 08:00:07;;;;;;;2.70;0.60;;;9.10;99.90;;;;;;5088762;28;20146;-80
2024/02/08 08:02:35;;;;;;;0.50;0.50;;;9.10;99.90;;;;;;5066397;28;20033;-83
2024/02/08 08:05:01;;;;;;;0.30;0.30;;;9.00;99.90;;;;;;5071854;28;20440;-80
2024/02/08 08:07:27;;;;;;;1.70;0.32;;;9.00;99.90;;;;;;5067307;28;20021;-80
2024/02/08 08:09:59;;;;;;;0.80;0.70;;;9.20;99.90;;;;;;5088833;28;20081;-81
2024/02/08 08:12:31;;;;;;;0.82;0.50;;;9.20;99.90;;;;;;5071890;28;20161;-82
2024/02/08 08:19:55;;;;;;;0.40;0.40;;;9.30;99.90;;;;;;5089439;28;20230;-85
2024/02/08 08:27:47;;;;;;;0.47;0.40;;;9.50;99.90;;;;;;5088994;28;20653;-76
2024/02/08 08:30:27;;;;;;;0.40;0.40;;;9.60;99.90;;;;;;5102058;28;20047;-76
2024/02/08 08:41:06;;;;;;;1.80;0.70;;;9.80;99.90;;;;;;5083475;28;20062;-76
2024/02/08 08:43:35;;;;;;;1.33;0.50;;;9.90;99.90;;;;;;5091194;28;20067;-76
2024/02/08 08:46:01;;;;;;;0.70;0.50;;;9.90;99.90;;;;;;5092576;28;20020;-76
2024/02/08 08:48:33;;;;;;;0.43;0.40;;;9.90;99.90;;;;;;5091438;28;20441;-78
2024/02/08 08:51:10;;;;;;;1.00;0.47;;;9.90;99.90;;;;;;5086950;28;20031;-75
2024/02/08 08:53:43;;;;;;;1.05;0.50;;;9.80;99.90;;;;;;5071673;28;20032;-76
2024/02/08 08:56:12;;;;;;;0.57;0.32;;;9.90;99.90;;;;;;5092470;28;20020;-76
2024/02/08 08:58:41;;;;;;;1.40;0.43;;;9.90;99.90;;;;;;5066158;28;20064;-76
2024/02/08 09:01:21;;;;;;;0.90;0.40;;;9.90;99.90;;;;;;5089295;28;20024;-76
2024/02/08 09:04:09;;;;;;;0.80;0.50;;;10.00;99.90;;;;;;5087762;28;20028;-76
2024/02/08 09:06:38;;;;;;;0.85;0.60;;;10.20;99.90;;;;;;5090407;28;20123;-76
2024/02/08 09:09:27;;;;;;;1.80;0.20;;;10.30;99.90;;;;;;5061399;28;20123;-76
2024/02/08 09:11:57;;;;;;;0.40;0.30;;;10.40;99.90;;;;;;5079890;28;20034;-75
2024/02/08 09:14:30;;;;;;;1.17;0.40;;;10.40;99.90;;;;;;5071655;28;20024;-76
2024/02/08 09:16:57;;;;;;;1.42;0.40;;;10.50;99.90;;;;;;5091717;28;20028;-76
2024/02/08 09:19:27;;;;;;;1.00;0.50;;;10.60;99.90;;;;;;5072120;28;20024;-77
2024/02/08 09:21:58;;;;;;;4.10;2.33;;;10.60;99.90;;;;;;5077930;28;20068;-76
2024/02/08 09:24:28;;;;;;;1.58;0.60;;;10.60;99.90;;;;;;5068756;28;20029;-75
2024/02/08 09:27:15;;;;;;;1.00;0.30;;;10.70;99.90;;;;;;5071091;28;20090;-76
2024/02/08 09:29:42;;;;;;;0.50;0.20;;;10.80;99.90;;;;;;5059476;28;20285;-76
2024/02/08 09:32:43;;;;;;;1.20;0.30;;;10.90;99.90;;;;;;5032969;28;20098;-76
2024/02/08 09:35:11;;;;;;;0.45;0.40;;;10.90;99.90;;;;;;5050831;28;20029;-76
2024/02/08 09:37:48;;;;;;;0.88;0.20;;;11.00;99.90;;;;;;5052809;28;20029;-76
2024/02/08 09:43:11;;;;;;;0.80;0.20;;;11.10;99.90;;;;;;5071144;28;20060;-76
2024/02/08 09:48:15;;;;;;;0.20;0.20;;;11.30;99.90;;;;;;5071264;28;20313;-76
2024/02/08 09:50:50;;;;;;;0.32;0.32;;;11.30;99.90;;;;;;5070920;28;20028;-76
2024/02/08 09:53:30;;;;;;;0.85;0.40;;;11.40;99.90;;;;;;5051416;28;20024;-76
2024/02/08 09:55:56;;;;;;;;;;;11.40;99.90;;;;;;5052961;28;20025;-76
2024/02/08 09:58:37;;;;;;;1.25;0.30;;;11.50;99.90;;;;;;5069391;28;19968;-76
2024/02/08 10:01:30;;;;;;;0.47;0.20;;;11.40;99.90;;;;;;5052807;28;20028;-76
2024/02/08 10:04:05;;;;;;;0.50;0.50;;;11.40;99.90;;;;;;5063261;28;20025;-76
2024/02/08 10:06:58;;;;;;;0.47;0.47;;;11.50;99.90;;;;;;5051234;28;20440;-77
2024/02/08 10:09:36;;;;;;;1.38;0.75;;;11.60;99.90;;;;;;5068149;28;20029;-76
2024/02/08 10:12:11;;;;;;;2.08;0.30;;;11.60;99.90;;;;;;5069261;28;20029;-76
2024/02/08 10:14:42;;;;;;;0.68;0.35;;;11.70;99.90;;;;;;5064105;28;20120;-76
2024/02/08 10:17:28;;;;;;;0.30;0.30;;;11.70;99.90;;;;;;5017389;28;20045;-76
2024/02/08 10:20:32;;;;;;;2.00;0.50;;;11.70;99.90;;;;;;5037671;28;20401;-76
2024/02/08 10:28:22;;;;;;;2.55;0.30;;;11.80;99.90;;;;;;5067541;28;19915;-76
2024/02/08 10:31:05;;;;;;;2.22;0.30;;;11.90;99.90;;;;;;5069610;28;20092;-76
2024/02/08 10:33:37;;;;;;;1.13;0.38;;;11.90;99.90;;;;;;5050070;28;20298;-76
2024/02/08 10:36:08;;;;;;;1.02;0.20;;;12.00;99.90;;;;;;5069681;28;20399;-76
2024/02/08 10:38:54;;;;;;;;;;;12.00;99.90;;;;;;5068698;28;20043;-76
2024/02/08 10:41:28;;;;;;;0.80;0.32;;;12.10;99.90;;;;;;5068403;28;19911;-76
2024/02/08 10:43:59;;;;;;;1.10;0.35;;;12.00;99.90;;;;;;5067499;28;20036;-76
2024/02/08 10:46:42;;;;;;;0.30;0.30;;;12.00;99.90;;;;;;5069695;28;20055;-77
2024/02/08 10:49:09;;;;;;;0.50;0.30;;;11.90;99.90;;;;;;5051267;28;20392;-76
2024/02/08 10:51:36;;;;;;;0.50;0.40;;;11.80;99.90;;;;;;5068795;28;20013;-76
2024/02/08 10:54:08;;;;;;;0.30;0.22;;;11.70;99.90;;;;;;5068326;28;20036;-76
2024/02/08 10:56:44;;;;;;;2.22;0.68;;;11.50;99.90;;;;;;5068888;28;20021;-78
2024/02/08 10:59:14;;;;;;;0.50;0.40;;;11.30;99.90;;;;;;5002089;28;20569;-77
2024/02/08 11:04:20;;;;;;;0.52;0.22;;;11.10;99.90;;;;;;5067667;28;20391;-75
2024/02/08 11:09:37;;;;;;;0.63;0.32;;;11.10;99.90;;;;;;5068290;28;20059;-77
2024/02/08 11:12:32;;;;;;;0.98;0.50;;;11.10;99.90;;;;;;5079008;28;20025;-77
2024/02/08 11:15:13;;;;;;;0.40;0.30;;;11.20;99.90;;;;;;5032586;28;20131;-76
2024/02/08 11:18:02;;;;;;;0.20;0.20;;;11.30;99.90;;;;;;5055372;28;20029;-77
2024/02/08 11:20:42;;;;;;;1.13;0.32;;;11.50;99.90;;;;;;5069707;28;20033;-77
2024/02/08 11:23:23;;;;;;;2.67;0.80;;;11.70;99.90;;;;;;5067802;28;20040;-78
2024/02/08 11:25:52;;;;;;;1.65;0.30;;;11.80;99.90;;;;;;5072920;28;20009;-77
2024/02/08 11:28:43;;;;;;;0.60;0.30;;;11.90;99.90;;;;;;5078653;28;20048;-77
2024/02/08 11:31:18;;;;;;;1.10;0.55;;;12.00;99.90;;;;;;5076767;28;20133;-77
2024/02/08 11:33:44;;;;;;;0.77;0.30;;;12.00;99.90;;;;;;5047497;28;20055;-77
2024/02/08 11:36:12;;;;;;;3.08;0.40;;;12.10;99.90;;;;;;5091684;28;20090;-76
2024/02/08 11:38:40;;;;;;;0.80;0.40;;;12.30;99.90;;;;;;5078198;28;20104;-77
2024/02/08 11:41:10;;;;;;;0.73;0.40;;;12.40;99.90;;;;;;5088739;28;20032;-79
2024/02/08 11:43:47;;;;;;;1.00;0.47;;;12.50;99.90;;;;;;5085969;28;20028;-77
2024/02/08 11:46:21;;;;;;;3.42;0.47;;;12.60;99.90;;;;;;5092539;28;20552;-77
2024/02/08 11:48:48;;;;;;;0.55;0.40;;;12.70;99.90;;;;;;5088594;28;20024;-75
2024/02/08 11:51:17;;;;;;;3.17;0.40;;;12.70;99.90;;;;;;5062999;28;22663;-76
2024/02/08 11:53:44;;;;;;;4.28;0.40;;;12.70;99.90;;;;;;5081635;28;20050;-74
2024/02/08 11:56:12;;;;;;;2.85;0.43;;;12.70;99.90;;;;;;5075234;28;20024;-75
2024/02/08 11:58:46;;;;;;;0.43;0.35;;;12.70;99.90;;;;;;5072855;28;20027;-75
2024/02/08 12:01:14;;;;;;;2.03;0.43;;;12.80;99.90;;;;;;5092723;28;20026;-77
2024/02/08 12:03:43;;;;;;;2.55;0.85;;;12.80;99.90;;;;;;5084329;28;20029;-76
2024/02/08 12:06:18;;;;;;;1.50;0.40;;;12.90;99.90;;;;;;5091640;28;20100;-76
2024/02/08 12:09:02;;;;;;;1.38;0.82;;;12.90;99.90;;;;;;5080968;28;20016;-75
2024/02/08 12:11:32;;;;;;;3.40;1.30;;;12.80;99.90;;;;;;5082688;28;20023;-76
2024/02/08 12:14:06;;;;;;;1.17;0.35;;;12.80;99.90;;;;;;5071877;28;20052;-75
2024/02/08 12:16:33;;;;;;;2.55;0.63;;;12.90;99.90;;;;;;5092412;28;20035;-74
2024/02/08 12:19:05;;;;;;;3.42;0.50;;;13.00;99.90;;;;;;5093593;28;20024;-77
2024/02/08 12:21:35;;;;;;;1.92;0.60;;;13.00;99.90;;;;;;5086680;28;20052;-75
2024/02/08 12:24:01;;;;;;;;;;;13.10;99.90;;;;;;5033532;28;20037;-77
2024/02/08 12:26:31;;;;;;;3.25;0.50;;;13.20;99.90;;;;;;5037699;28;19911;-77
2024/02/08 12:29:02;;;;;;;1.17;0.50;;;13.30;99.90;;;;;;5044672;28;20116;-78
2024/02/08 12:31:33;;;;;;;2.95;1.00;;;13.30;99.90;;;;;;5071090;28;20056;-75
2024/02/08 12:34:03;;;;;;;2.80;0.88;;;13.30;99.90;;;;;;5064241;28;20025;-77
2024/02/08 12:36:31;;;;;;;3.03;1.40;;;13.40;99.90;;;;;;5065788;28;20016;-77
2024/02/08 12:39:06;;;;;;;4.18;0.80;;;13.40;99.90;;;;;;5076191;28;20101;-76
2024/02/08 12:41:38;;;;;;;4.10;1.02;;;13.40;99.90;;;;;;5070473;28;20393;-77
2024/02/08 12:44:04;;;;;;;2.50;0.80;;;13.40;99.90;;;;;;5070684;28;20077;-77
2024/02/08 12:46:31;;;;;;;3.67;0.93;;;13.40;99.90;;;;;;5071772;28;20127;-76
2024/02/08 12:48:58;;;;;;;3.35;0.68;;;13.40;99.90;;;;;;5054075;28;20077;-77
2024/02/08 12:51:24;;;;;;;4.85;1.00;;;13.50;99.90;;;;;;5053044;28;20116;-77
2024/02/08 12:53:56;;;;;;;3.00;1.08;;;13.60;99.90;;;;;;5060991;28;20107;-76
2024/02/08 12:56:22;;;;;;;6.10;1.50;;;13.70;99.90;;;;;;5072190;28;20031;-77
2024/02/08 12:59:01;;;;;;;6.85;1.70;;;13.80;99.90;;;;;;5047321;28;20028;-76
2024/02/08 13:01:44;;;;;;;3.05;1.13;;;13.80;99.90;;;;;;5072294;28;20017;-77
2024/02/08 13:04:19;;;;;;;4.60;1.38;;;13.70;99.90;;;;;;5067985;28;20028;-77
2024/02/08 13:06:48;;;;;;;11.52;1.25;;;13.70;99.90;;;;;;5072011;28;20032;-77
2024/02/08 13:09:25;;;;;;;7.40;1.67;;;13.60;99.90;;;;;;5068724;28;20028;-77
2024/02/08 13:12:23;;;;;;;7.63;1.63;;;13.50;99.90;;;;;;5063159;28;20024;-77
2024/02/08 13:14:48;;;;;;;14.85;1.75;;;13.50;99.90;;;;;;5071964;28;20033;-77
2024/02/08 13:17:23;;;;;;;7.88;1.40;;;13.50;99.90;;;;;;5071339;28;20021;-79
2024/02/08 13:19:50;;;;;;;11.00;1.80;;;13.60;99.90;;;;;;5059007;28;20345;-77
2024/02/08 13:22:21;;;;;;;13.43;2.22;;;13.60;99.90;;;;;;5049422;28;20060;-76
2024/02/08 13:24:51;;;;;;;16.13;2.15;;;13.60;99.90;;;;;;5090069;28;20042;-76
2024/02/08 13:27:29;;;;;;;;;;;13.70;99.90;;;;;;5086628;28;20016;-76
2024/02/08 13:29:59;;;;;;;8.75;1.85;;;13.70;99.90;;;;;;5072751;28;19916;-76
2024/02/08 13:32:28;;;;;;;11.55;1.70;;;13.70;99.90;;;;;;5086897;28;20093;-76
2024/02/08 13:35:00;;;;;;;21.00;2.85;;;13.70;99.90;;;;;;5074396;28;20027;-77
2024/02/08 13:37:28;;;;;;;12.25;2.58;;;13.80;99.90;;;;;;5085547;28;20024;-77
2024/02/08 13:39:59;;;;;;;13.13;2.83;;;13.80;99.90;;;;;;5086135;28;20503;-77
2024/02/08 13:42:29;;;;;;;16.02;2.30;;;13.70;99.90;;;;;;5092251;28;20451;-74
2024/02/08 13:45:01;;;;;;;14.23;2.63;;;13.80;99.90;;;;;;5080285;28;20394;-73
2024/02/08 13:47:30;;;;;;;16.45;2.60;;;13.90;99.90;;;;;;5081937;28;20028;-73
2024/02/08 13:49:57;;;;;;;17.52;2.88;;;13.90;99.90;;;;;;5086174;28;20030;-72
2024/02/08 13:52:26;;;;;;;10.88;2.45;;;14.00;99.90;;;;;;5057156;28;20569;-73
2024/02/08 13:54:55;;;;;;;20.08;3.47;;;14.10;99.90;;;;;;5084308;28;20074;-73
2024/02/08 13:57:42;;;;;;;10.57;1.75;;;14.00;99.90;;;;;;5065902;28;20099;-73
2024/02/08 14:00:08;;;;;;;13.52;2.20;;;14.00;99.90;;;;;;4974719;28;20066;-72
2024/02/08 14:02:36;;;;;;;12.75;2.35;;;14.00;99.90;;;;;;5001896;28;20045;-73
2024/02/08 14:05:16;;;;;;;11.23;2.85;;;14.00;99.90;;;;;;4997946;28;20034;-71
2024/02/08 14:07:44;;;;;;;14.30;2.55;;;14.00;99.90;;;;;;5014316;28;20030;-72
2024/02/08 14:10:12;;;;;;;11.00;2.80;;;13.90;99.90;;;;;;4997184;28;20024;-72
2024/02/08 14:12:45;;;;;;;7.32;2.58;;;13.90;99.90;;;;;;5005557;28;20084;-72
2024/02/08 14:15:11;;;;;;;13.55;2.60;;;14.00;99.90;;;;;;5007963;28;20053;-72
2024/02/08 14:17:41;;;;;;;11.07;2.92;;;14.00;99.90;;;;;;5005510;28;20034;-72
2024/02/08 14:22:59;;;;;;;12.82;2.83;;;13.90;99.90;;;;;;5007056;28;20156;-71
2024/02/08 14:25:37;;;;;;;13.15;2.97;;;13.90;99.90;;;;;;5010873;28;20022;-72
2024/02/08 14:28:09;;;;;;;18.38;3.80;;;13.90;99.90;;;;;;5006264;28;20038;-71
2024/02/08 14:30:36;;;;;;;25.33;4.13;;;13.90;99.90;;;;;;5009805;28;20116;-71
2024/02/08 14:33:01;;;;;;;20.02;3.63;;;13.80;99.90;;;;;;5005435;28;20454;-72
2024/02/08 14:35:31;;;;;;;20.17;3.13;;;13.80;99.90;;;;;;5012941;28;20056;-71
2024/02/08 14:38:00;;;;;;;21.23;3.40;;;13.80;99.90;;;;;;5081780;28;20028;-72
2024/02/08 14:40:27;;;;;;;17.85;2.95;;;13.70;99.90;;;;;;5075649;28;20032;-72
2024/02/08 14:42:57;;;;;;;16.85;3.38;;;13.70;99.90;;;;;;5082298;28;20028;-72
2024/02/08 14:45:25;;;;;;;22.20;2.92;;;13.70;99.90;;;;;;5058645;28;20035;-72
2024/02/08 14:47:52;;;;;;;18.00;3.05;;;13.60;99.90;;;;;;5087890;28;20012;-71
2024/02/08 14:53:04;;;;;;;17.08;3.65;;;13.60;99.90;;;;;;5086457;28;20047;-72
2024/02/08 14:55:35;;;;;;;13.50;2.65;;;13.70;99.90;;;;;;5089036;28;20086;-72
2024/02/08 14:58:01;;;;;;;13.25;2.92;;;13.70;99.90;;;;;;5089808;28;20030;-72
2024/02/08 15:03:27;;;;;;;17.52;4.57;;;13.60;99.90;;;;;;5022143;28;20029;-72
2024/02/08 15:05:59;;;;;;;18.05;2.92;;;13.50;99.90;;;;;;5020032;28;20112;-72
2024/02/08 15:11:09;;;;;;;22.73;3.95;;;13.40;99.90;;;;;;5024183;28;20017;-71
2024/02/08 15:13:49;;;;;;;;;;;13.30;99.90;;;;;;5018507;28;20025;-71
2024/02/08 15:16:21;;;;;;;24.60;3.95;;;13.20;99.90;;;;;;5014282;28;19916;-71
2024/02/08 15:18:48;;;;;;;16.67;4.32;;;13.10;99.90;;;;;;5020988;28;20041;-71
2024/02/08 15:21:16;;;;;;;18.88;4.13;;;13.10;99.90;;;;;;5026106;28;20045;-71
2024/02/08 15:23:48;;;;;;;19.42;4.20;;;13.00;99.90;;;;;;5039386;28;20123;-71
2024/02/08 15:26:14;;;;;;;15.73;3.08;;;13.00;99.90;;;;;;5039260;28;20691;-71
2024/02/08 15:28:45;;;;;;;16.70;3.28;;;13.00;99.90;;;;;;5037376;28;20037;-72
2024/02/08 15:31:14;;;;;;;14.88;3.60;;;13.00;99.90;;;;;;5036008;28;20477;-72
2024/02/08 15:34:07;;;;;;;20.92;4.05;;;13.00;99.90;;;;;;5046104;28;20039;-71
2024/02/08 15:42:09;;;;;;;21.60;3.78;;;12.90;99.90;;;;;;5034274;28;20046;-72
2024/02/08 15:44:52;;;;;;;24.42;3.92;;;12.90;99.90;;;;;;5078002;28;20020;-72
2024/02/08 15:47:18;;;;;;;19.08;3.95;;;12.90;99.90;;;;;;5082100;28;20031;-71